Erevan, Arménie

06:30 AMT le 13 février 2016 (GMT +0400)
Zvartnots | | Change Station
CLOSE
Current Station
Aéroport
Location: Zvartnots,
Altitude: 2838 ft
Stations météo à proximité

Alt. 2838 ft 40.15 °N, 44.40 °E | Updated 30 minutes ago

Mist
Brume
23 ° F
Paraît 23 ° F
N
0
Vent Variable Vent de Nord

Aujourd'hui
Haut(e) -- | Bas -- ° F
--% Risque de précip.
Hier
Haut(e) -- | Bas -- ° F
Precip. -- pouce
Pression 30.30 pouce
Visibilité 2.2 Miles terrestres
Nuages
Point de rosée 21 ° F
Humidité 93%
Précipitations 0.00 pouce
Profondeur de la couche neigeuse Non disponible.
7:58 AM 6:34 PM
Lune montante, 26% visible
METAR UDYZ 130200Z 00000MPS 3500 BR NSC M05/M06 Q1026 R09/0///70 NOSIG
Pression 30.30 pouce
Visibilité 2.2 Miles terrestres
Nuages
Point de rosée 21 ° F
Humidité 93%
Précipitations 0.00 pouce
Profondeur de la couche neigeuse Non disponible.
7:58 AM 6:34 PM
Lune montante, 26% visible
METAR UDYZ 130200Z 00000MPS 3500 BR NSC M05/M06 Q1026 R09/0///70 NOSIG

10-Day Weather Forecast

Almanac

Astronomie

Feb. 13, 2016 Lever Coucher
Temps réel
Crépuscule civil
Crépuscule nautique
Crépuscule astronomique
Lune
Durée de lumière visible
Longueur du jour
Tomorrow will be .
, % of the Moon is Illuminated

Extrêmes aujourd'hui

Country Highs Country Lows

Community

WunderPhotos

Upload Photos

1,892,464 Photos téléchargées !

WunderBlog® & News

Nearby

Qualité de l'air

  Qualité de l'air Indice de la qualité de l'air Polluant
Not available.

Épaisseur de neige

Station Depth Altitude

Activité sismique

Ville Distance Mag. Time & Date
Minimum magnitude displayed is 2.5.

Températures des eaux côtières

Lieu Température

Stations

Stations météo à proximité

Emplacement de la station Température Refroidissement éolien Point de rosée Humidité Vent Precip. Alt. Mise à jour Type